sensor_id;sensor_type;location;lat;lon;timestamp;temperature;humidity
76263;DHT22;65080;50.908;6.916;2022-12-07T00:02:25;6.50;82.20
76263;DHT22;65080;50.908;6.916;2022-12-07T00:04:54;6.50;82.20
76263;DHT22;65080;50.908;6.916;2022-12-07T00:07:22;6.50;82.30
76263;DHT22;65080;50.908;6.916;2022-12-07T00:09:54;6.50;82.30
76263;DHT22;65080;50.908;6.916;2022-12-07T00:12:22;6.50;82.30
76263;DHT22;65080;50.908;6.916;2022-12-07T00:14:51;6.50;82.30
76263;DHT22;65080;50.908;6.916;2022-12-07T00:17:19;6.50;82.30
76263;DHT22;65080;50.908;6.916;2022-12-07T00:19:48;6.50;82.20
76263;DHT22;65080;50.908;6.916;2022-12-07T00:22:16;6.50;82.30
76263;DHT22;65080;50.908;6.916;2022-12-07T00:24:44;6.50;82.40
76263;DHT22;65080;50.908;6.916;2022-12-07T00:27:12;6.50;82.50
76263;DHT22;65080;50.908;6.916;2022-12-07T00:29:40;6.50;82.40
76263;DHT22;65080;50.908;6.916;2022-12-07T00:32:10;6.50;82.30
76263;DHT22;65080;50.908;6.916;2022-12-07T00:34:38;6.50;82.30
76263;DHT22;65080;50.908;6.916;2022-12-07T00:37:06;6.50;82.30
76263;DHT22;65080;50.908;6.916;2022-12-07T00:39:34;6.60;82.40
76263;DHT22;65080;50.908;6.916;2022-12-07T00:42:03;6.60;82.40
76263;DHT22;65080;50.908;6.916;2022-12-07T00:44:31;6.60;82.50
76263;DHT22;65080;50.908;6.916;2022-12-07T00:46:59;6.60;82.50
76263;DHT22;65080;50.908;6.916;2022-12-07T00:49:29;6.70;82.40
76263;DHT22;65080;50.908;6.916;2022-12-07T00:51:57;6.60;82.30
76263;DHT22;65080;50.908;6.916;2022-12-07T00:54:26;6.70;82.40
76263;DHT22;65080;50.908;6.916;2022-12-07T00:56:54;6.70;82.30
76263;DHT22;65080;50.908;6.916;2022-12-07T00:59:22;6.70;82.30
76263;DHT22;65080;50.908;6.916;2022-12-07T01:01:51;6.70;82.20
76263;DHT22;65080;50.908;6.916;2022-12-07T01:04:20;6.70;82.10
76263;DHT22;65080;50.908;6.916;2022-12-07T01:06:49;6.70;82.10
76263;DHT22;65080;50.908;6.916;2022-12-07T01:09:18;6.70;82.10
76263;DHT22;65080;50.908;6.916;2022-12-07T01:11:46;6.70;82.20
76263;DHT22;65080;50.908;6.916;2022-12-07T01:14:14;6.70;82.20
76263;DHT22;65080;50.908;6.916;2022-12-07T01:16:42;6.70;82.20
76263;DHT22;65080;50.908;6.916;2022-12-07T01:19:10;6.70;82.20
76263;DHT22;65080;50.908;6.916;2022-12-07T01:21:39;6.70;82.10
76263;DHT22;65080;50.908;6.916;2022-12-07T01:24:10;6.80;82.20
76263;DHT22;65080;50.908;6.916;2022-12-07T01:26:38;6.80;82.20
76263;DHT22;65080;50.908;6.916;2022-12-07T01:29:07;6.80;82.10
76263;DHT22;65080;50.908;6.916;2022-12-07T01:31:35;6.80;82.00
76263;DHT22;65080;50.908;6.916;2022-12-07T01:34:03;6.80;82.00
76263;DHT22;65080;50.908;6.916;2022-12-07T01:36:33;6.80;82.10
76263;DHT22;65080;50.908;6.916;2022-12-07T01:39:05;6.90;82.00
76263;DHT22;65080;50.908;6.916;2022-12-07T01:41:38;6.80;82.00
76263;DHT22;65080;50.908;6.916;2022-12-07T01:44:16;6.80;82.00
76263;DHT22;65080;50.908;6.916;2022-12-07T01:46:46;6.80;81.90
76263;DHT22;65080;50.908;6.916;2022-12-07T01:49:28;6.90;81.90
76263;DHT22;65080;50.908;6.916;2022-12-07T01:52:02;6.90;81.80
76263;DHT22;65080;50.908;6.916;2022-12-07T01:54:32;6.90;81.80
76263;DHT22;65080;50.908;6.916;2022-12-07T01:57:03;6.90;82.40
76263;DHT22;65080;50.908;6.916;2022-12-07T01:59:33;6.90;81.70
76263;DHT22;65080;50.908;6.916;2022-12-07T02:02:02;6.90;81.70
76263;DHT22;65080;50.908;6.916;2022-12-07T02:04:32;6.90;81.70
76263;DHT22;65080;50.908;6.916;2022-12-07T02:07:00;6.80;81.60
76263;DHT22;65080;50.908;6.916;2022-12-07T02:09:29;6.90;81.80
76263;DHT22;65080;50.908;6.916;2022-12-07T02:11:57;6.80;81.60
76263;DHT22;65080;50.908;6.916;2022-12-07T02:14:27;6.90;81.80
76263;DHT22;65080;50.908;6.916;2022-12-07T02:17:05;6.90;81.70
76263;DHT22;65080;50.908;6.916;2022-12-07T02:20:13;6.80;81.60
76263;DHT22;65080;50.908;6.916;2022-12-07T02:23:16;6.90;81.70
76263;DHT22;65080;50.908;6.916;2022-12-07T02:29:13;6.80;81.50
76263;DHT22;65080;50.908;6.916;2022-12-07T02:31:46;6.80;81.50
76263;DHT22;65080;50.908;6.916;2022-12-07T02:34:21;6.80;81.50
76263;DHT22;65080;50.908;6.916;2022-12-07T02:36:55;6.80;81.60
76263;DHT22;65080;50.908;6.916;2022-12-07T02:39:28;6.80;81.70
76263;DHT22;65080;50.908;6.916;2022-12-07T02:42:02;6.80;81.60
76263;DHT22;65080;50.908;6.916;2022-12-07T02:44:33;6.80;81.60
76263;DHT22;65080;50.908;6.916;2022-12-07T02:47:05;6.80;81.60
76263;DHT22;65080;50.908;6.916;2022-12-07T02:49:33;6.80;81.50
76263;DHT22;65080;50.908;6.916;2022-12-07T02:52:03;6.80;81.50
76263;DHT22;65080;50.908;6.916;2022-12-07T02:54:32;6.80;81.50
76263;DHT22;65080;50.908;6.916;2022-12-07T02:57:04;6.80;81.40
76263;DHT22;65080;50.908;6.916;2022-12-07T02:59:46;6.80;81.40
76263;DHT22;65080;50.908;6.916;2022-12-07T03:02:24;6.80;81.50
76263;DHT22;65080;50.908;6.916;2022-12-07T03:05:06;6.80;81.50
76263;DHT22;65080;50.908;6.916;2022-12-07T03:07:44;6.80;81.40
76263;DHT22;65080;50.908;6.916;2022-12-07T03:10:23;6.80;81.50
76263;DHT22;65080;50.908;6.916;2022-12-07T03:13:01;6.80;81.40
76263;DHT22;65080;50.908;6.916;2022-12-07T03:15:38;6.80;81.30
76263;DHT22;65080;50.908;6.916;2022-12-07T03:18:12;6.70;81.40
76263;DHT22;65080;50.908;6.916;2022-12-07T03:20:44;6.70;81.50
76263;DHT22;65080;50.908;6.916;2022-12-07T03:23:18;6.70;81.50
76263;DHT22;65080;50.908;6.916;2022-12-07T03:25:48;6.80;81.60
76263;DHT22;65080;50.908;6.916;2022-12-07T03:28:27;6.80;81.60
76263;DHT22;65080;50.908;6.916;2022-12-07T03:31:00;6.80;81.60
76263;DHT22;65080;50.908;6.916;2022-12-07T03:33:33;6.80;81.70
76263;DHT22;65080;50.908;6.916;2022-12-07T03:36:06;6.80;81.80
76263;DHT22;65080;50.908;6.916;2022-12-07T03:38:40;6.80;81.70
76263;DHT22;65080;50.908;6.916;2022-12-07T03:41:11;6.90;81.70
76263;DHT22;65080;50.908;6.916;2022-12-07T03:43:43;6.80;81.50
76263;DHT22;65080;50.908;6.916;2022-12-07T03:46:19;6.90;81.60
76263;DHT22;65080;50.908;6.916;2022-12-07T03:48:56;6.80;81.50
76263;DHT22;65080;50.908;6.916;2022-12-07T03:51:28;6.90;81.60
76263;DHT22;65080;50.908;6.916;2022-12-07T03:54:02;6.90;81.60
76263;DHT22;65080;50.908;6.916;2022-12-07T03:56:35;6.80;81.50
76263;DHT22;65080;50.908;6.916;2022-12-07T03:59:06;6.90;81.50
76263;DHT22;65080;50.908;6.916;2022-12-07T04:01:36;6.90;81.50
76263;DHT22;65080;50.908;6.916;2022-12-07T04:04:05;6.80;81.30
76263;DHT22;65080;50.908;6.916;2022-12-07T04:06:35;6.90;81.50
76263;DHT22;65080;50.908;6.916;2022-12-07T04:09:03;6.80;81.40
76263;DHT22;65080;50.908;6.916;2022-12-07T04:11:34;6.80;81.20
76263;DHT22;65080;50.908;6.916;2022-12-07T04:14:10;6.80;81.20
76263;DHT22;65080;50.908;6.916;2022-12-07T04:16:51;6.80;81.30
76263;DHT22;65080;50.908;6.916;2022-12-07T04:19:26;6.80;81.40
76263;DHT22;65080;50.908;6.916;2022-12-07T04:21:55;6.80;81.30
76263;DHT22;65080;50.908;6.916;2022-12-07T04:24:29;6.80;81.30
76263;DHT22;65080;50.908;6.916;2022-12-07T04:26:57;6.80;81.90
76263;DHT22;65080;50.908;6.916;2022-12-07T04:29:28;6.80;81.20
76263;DHT22;65080;50.908;6.916;2022-12-07T04:32:01;6.80;81.20
76263;DHT22;65080;50.908;6.916;2022-12-07T04:34:29;6.80;81.30
76263;DHT22;65080;50.908;6.916;2022-12-07T04:37:00;6.80;81.10
76263;DHT22;65080;50.908;6.916;2022-12-07T04:39:32;6.80;80.90
76263;DHT22;65080;50.908;6.916;2022-12-07T04:42:05;6.80;80.90
76263;DHT22;65080;50.908;6.916;2022-12-07T04:44:35;6.80;81.10
76263;DHT22;65080;50.908;6.916;2022-12-07T04:47:05;6.80;81.10
76263;DHT22;65080;50.908;6.916;2022-12-07T04:49:34;6.70;80.90
76263;DHT22;65080;50.908;6.916;2022-12-07T04:52:09;6.70;80.90
76263;DHT22;65080;50.908;6.916;2022-12-07T04:54:37;6.70;80.90
76263;DHT22;65080;50.908;6.916;2022-12-07T04:57:08;6.70;80.90
76263;DHT22;65080;50.908;6.916;2022-12-07T04:59:36;6.70;81.00
76263;DHT22;65080;50.908;6.916;2022-12-07T05:02:12;6.70;81.00
76263;DHT22;65080;50.908;6.916;2022-12-07T05:04:41;6.70;81.60
76263;DHT22;65080;50.908;6.916;2022-12-07T05:07:09;6.60;80.90
76263;DHT22;65080;50.908;6.916;2022-12-07T05:09:40;6.60;81.10
76263;DHT22;65080;50.908;6.916;2022-12-07T05:12:08;6.60;81.00
76263;DHT22;65080;50.908;6.916;2022-12-07T05:14:36;6.60;81.00
76263;DHT22;65080;50.908;6.916;2022-12-07T05:17:04;6.60;81.00
76263;DHT22;65080;50.908;6.916;2022-12-07T05:19:34;6.60;81.00
76263;DHT22;65080;50.908;6.916;2022-12-07T05:22:02;6.60;81.00
76263;DHT22;65080;50.908;6.916;2022-12-07T05:24:34;6.60;81.00
76263;DHT22;65080;50.908;6.916;2022-12-07T05:27:02;6.70;81.10
76263;DHT22;65080;50.908;6.916;2022-12-07T05:29:31;6.60;81.10
76263;DHT22;65080;50.908;6.916;2022-12-07T05:32:02;6.60;81.00
76263;DHT22;65080;50.908;6.916;2022-12-07T05:34:35;6.60;81.20
76263;DHT22;65080;50.908;6.916;2022-12-07T05:37:03;6.60;81.00
76263;DHT22;65080;50.908;6.916;2022-12-07T05:39:31;6.60;81.00
76263;DHT22;65080;50.908;6.916;2022-12-07T05:42:00;6.60;81.10
76263;DHT22;65080;50.908;6.916;2022-12-07T05:44:41;6.70;81.10
76263;DHT22;65080;50.908;6.916;2022-12-07T05:47:10;6.70;81.20
76263;DHT22;65080;50.908;6.916;2022-12-07T05:49:40;6.70;81.00
76263;DHT22;65080;50.908;6.916;2022-12-07T05:52:08;6.70;81.00
76263;DHT22;65080;50.908;6.916;2022-12-07T05:54:36;6.70;80.90
76263;DHT22;65080;50.908;6.916;2022-12-07T05:57:05;6.70;80.90
76263;DHT22;65080;50.908;6.916;2022-12-07T05:59:33;6.70;81.00
76263;DHT22;65080;50.908;6.916;2022-12-07T06:02:02;6.70;81.00
76263;DHT22;65080;50.908;6.916;2022-12-07T06:04:33;6.70;80.90
76263;DHT22;65080;50.908;6.916;2022-12-07T06:07:03;6.70;81.00
76263;DHT22;65080;50.908;6.916;2022-12-07T06:09:32;6.70;81.10
76263;DHT22;65080;50.908;6.916;2022-12-07T06:12:01;6.70;81.00
76263;DHT22;65080;50.908;6.916;2022-12-07T06:14:47;6.60;81.10
76263;DHT22;65080;50.908;6.916;2022-12-07T06:17:16;6.60;80.90
76263;DHT22;65080;50.908;6.916;2022-12-07T06:19:44;6.60;80.80
76263;DHT22;65080;50.908;6.916;2022-12-07T06:22:14;6.50;80.90
76263;DHT22;65080;50.908;6.916;2022-12-07T06:24:44;6.50;81.10
76263;DHT22;65080;50.908;6.916;2022-12-07T06:27:14;6.50;81.10
76263;DHT22;65080;50.908;6.916;2022-12-07T06:29:42;6.50;81.10
76263;DHT22;65080;50.908;6.916;2022-12-07T06:32:11;6.40;80.90
76263;DHT22;65080;50.908;6.916;2022-12-07T06:34:39;6.40;81.00
76263;DHT22;65080;50.908;6.916;2022-12-07T06:37:07;6.40;81.10
76263;DHT22;65080;50.908;6.916;2022-12-07T06:39:37;6.40;81.20
76263;DHT22;65080;50.908;6.916;2022-12-07T06:42:05;6.40;81.80
76263;DHT22;65080;50.908;6.916;2022-12-07T06:44:33;6.40;81.10
76263;DHT22;65080;50.908;6.916;2022-12-07T06:47:03;6.40;81.10
76263;DHT22;65080;50.908;6.916;2022-12-07T06:49:51;6.40;81.10
76263;DHT22;65080;50.908;6.916;2022-12-07T06:52:19;6.40;80.90
76263;DHT22;65080;50.908;6.916;2022-12-07T06:54:49;6.40;81.00
76263;DHT22;65080;50.908;6.916;2022-12-07T06:57:17;6.30;80.80
76263;DHT22;65080;50.908;6.916;2022-12-07T06:59:47;6.30;81.20
76263;DHT22;65080;50.908;6.916;2022-12-07T07:02:15;6.30;81.10
76263;DHT22;65080;50.908;6.916;2022-12-07T07:04:43;6.30;81.20
76263;DHT22;65080;50.908;6.916;2022-12-07T07:07:11;6.30;81.30
76263;DHT22;65080;50.908;6.916;2022-12-07T07:09:40;6.30;81.30
76263;DHT22;65080;50.908;6.916;2022-12-07T07:12:09;6.30;81.40
76263;DHT22;65080;50.908;6.916;2022-12-07T07:14:37;6.30;81.50
76263;DHT22;65080;50.908;6.916;2022-12-07T07:17:06;6.30;81.50
76263;DHT22;65080;50.908;6.916;2022-12-07T07:19:34;6.40;81.60
76263;DHT22;65080;50.908;6.916;2022-12-07T07:22:03;6.40;81.50
76263;DHT22;65080;50.908;6.916;2022-12-07T07:24:31;6.40;81.50
76263;DHT22;65080;50.908;6.916;2022-12-07T07:27:00;6.40;81.60
76263;DHT22;65080;50.908;6.916;2022-12-07T07:29:29;6.40;81.70
76263;DHT22;65080;50.908;6.916;2022-12-07T07:31:57;6.40;81.60
76263;DHT22;65080;50.908;6.916;2022-12-07T07:34:32;6.40;81.50
76263;DHT22;65080;50.908;6.916;2022-12-07T07:37:01;6.40;81.40
76263;DHT22;65080;50.908;6.916;2022-12-07T07:39:29;6.40;82.00
76263;DHT22;65080;50.908;6.916;2022-12-07T07:41:57;6.30;81.30
76263;DHT22;65080;50.908;6.916;2022-12-07T07:44:25;6.40;81.50
76263;DHT22;65080;50.908;6.916;2022-12-07T07:47:02;6.30;81.30
76263;DHT22;65080;50.908;6.916;2022-12-07T07:49:30;6.30;81.30
76263;DHT22;65080;50.908;6.916;2022-12-07T07:51:59;6.30;81.50
76263;DHT22;65080;50.908;6.916;2022-12-07T07:54:27;6.30;81.60
76263;DHT22;65080;50.908;6.916;2022-12-07T07:56:55;6.30;81.80
76263;DHT22;65080;50.908;6.916;2022-12-07T07:59:23;6.30;81.80
76263;DHT22;65080;50.908;6.916;2022-12-07T08:01:52;6.30;81.80
76263;DHT22;65080;50.908;6.916;2022-12-07T08:04:22;6.30;81.80
76263;DHT22;65080;50.908;6.916;2022-12-07T08:06:50;6.30;81.70
76263;DHT22;65080;50.908;6.916;2022-12-07T08:09:19;6.30;81.60
76263;DHT22;65080;50.908;6.916;2022-12-07T08:11:47;6.30;81.50
76263;DHT22;65080;50.908;6.916;2022-12-07T08:14:15;6.30;81.60
76263;DHT22;65080;50.908;6.916;2022-12-07T08:16:43;6.30;81.70
76263;DHT22;65080;50.908;6.916;2022-12-07T08:19:11;6.30;81.80
76263;DHT22;65080;50.908;6.916;2022-12-07T08:21:41;6.30;81.90
76263;DHT22;65080;50.908;6.916;2022-12-07T08:24:09;6.30;81.90
76263;DHT22;65080;50.908;6.916;2022-12-07T08:26:37;6.40;82.00
76263;DHT22;65080;50.908;6.916;2022-12-07T08:29:06;6.40;82.70
76263;DHT22;65080;50.908;6.916;2022-12-07T08:31:34;6.40;82.00
76263;DHT22;65080;50.908;6.916;2022-12-07T08:34:03;6.50;82.00
76263;DHT22;65080;50.908;6.916;2022-12-07T08:36:31;6.50;81.90
76263;DHT22;65080;50.908;6.916;2022-12-07T08:39:00;6.50;81.90
76263;DHT22;65080;50.908;6.916;2022-12-07T08:41:48;6.50;81.90
76263;DHT22;65080;50.908;6.916;2022-12-07T08:44:17;6.50;81.80
76263;DHT22;65080;50.908;6.916;2022-12-07T08:46:46;6.50;81.70
76263;DHT22;65080;50.908;6.916;2022-12-07T08:49:18;6.50;81.60
76263;DHT22;65080;50.908;6.916;2022-12-07T08:51:47;6.50;81.70
76263;DHT22;65080;50.908;6.916;2022-12-07T08:54:18;6.50;81.70
76263;DHT22;65080;50.908;6.916;2022-12-07T08:56:47;6.60;81.80
76263;DHT22;65080;50.908;6.916;2022-12-07T08:59:25;6.60;81.80
76263;DHT22;65080;50.908;6.916;2022-12-07T09:01:54;6.70;81.80
76263;DHT22;65080;50.908;6.916;2022-12-07T09:04:22;6.70;81.70
76263;DHT22;65080;50.908;6.916;2022-12-07T09:06:51;6.70;81.60
76263;DHT22;65080;50.908;6.916;2022-12-07T09:09:20;6.70;81.60
76263;DHT22;65080;50.908;6.916;2022-12-07T09:11:49;6.80;81.60
76263;DHT22;65080;50.908;6.916;2022-12-07T09:14:17;6.80;81.50
76263;DHT22;65080;50.908;6.916;2022-12-07T09:16:46;6.80;81.40
76263;DHT22;65080;50.908;6.916;2022-12-07T09:19:14;6.80;81.40
76263;DHT22;65080;50.908;6.916;2022-12-07T09:21:42;6.90;81.30
76263;DHT22;65080;50.908;6.916;2022-12-07T09:24:11;6.90;81.40
76263;DHT22;65080;50.908;6.916;2022-12-07T09:26:41;6.90;81.30
76263;DHT22;65080;50.908;6.916;2022-12-07T09:29:09;7.00;81.30
76263;DHT22;65080;50.908;6.916;2022-12-07T09:31:37;7.00;81.20
76263;DHT22;65080;50.908;6.916;2022-12-07T09:34:06;7.00;81.10
76263;DHT22;65080;50.908;6.916;2022-12-07T09:36:34;7.00;81.00
76263;DHT22;65080;50.908;6.916;2022-12-07T09:39:03;7.10;81.10
76263;DHT22;65080;50.908;6.916;2022-12-07T09:41:32;7.10;80.90
76263;DHT22;65080;50.908;6.916;2022-12-07T09:44:06;7.20;81.00
76263;DHT22;65080;50.908;6.916;2022-12-07T09:46:36;7.20;80.60
76263;DHT22;65080;50.908;6.916;2022-12-07T09:49:11;7.10;80.60
76263;DHT22;65080;50.908;6.916;2022-12-07T09:51:40;7.20;81.40
76263;DHT22;65080;50.908;6.916;2022-12-07T09:54:09;7.20;80.70
76263;DHT22;65080;50.908;6.916;2022-12-07T09:56:40;7.20;80.50
76263;DHT22;65080;50.908;6.916;2022-12-07T09:59:16;7.30;80.50
76263;DHT22;65080;50.908;6.916;2022-12-07T10:01:47;7.30;80.30
76263;DHT22;65080;50.908;6.916;2022-12-07T10:04:18;7.30;80.20
76263;DHT22;65080;50.908;6.916;2022-12-07T10:06:48;7.40;80.30
76263;DHT22;65080;50.908;6.916;2022-12-07T10:09:19;7.40;80.10
76263;DHT22;65080;50.908;6.916;2022-12-07T10:12:05;7.40;80.00
76263;DHT22;65080;50.908;6.916;2022-12-07T10:14:37;7.50;79.70
76263;DHT22;65080;50.908;6.916;2022-12-07T10:17:32;7.50;80.20
76263;DHT22;65080;50.908;6.916;2022-12-07T10:20:19;7.50;79.30
76263;DHT22;65080;50.908;6.916;2022-12-07T10:22:55;7.50;78.90
76263;DHT22;65080;50.908;6.916;2022-12-07T10:25:28;7.50;78.70
76263;DHT22;65080;50.908;6.916;2022-12-07T10:28:10;7.50;78.60
76263;DHT22;65080;50.908;6.916;2022-12-07T10:30:49;7.50;78.50
76263;DHT22;65080;50.908;6.916;2022-12-07T10:33:31;7.60;78.40
76263;DHT22;65080;50.908;6.916;2022-12-07T10:36:01;7.60;78.30
76263;DHT22;65080;50.908;6.916;2022-12-07T10:38:31;7.60;78.20
76263;DHT22;65080;50.908;6.916;2022-12-07T10:41:08;7.60;78.00
76263;DHT22;65080;50.908;6.916;2022-12-07T10:43:36;7.70;77.90
76263;DHT22;65080;50.908;6.916;2022-12-07T10:46:29;7.70;77.60
76263;DHT22;65080;50.908;6.916;2022-12-07T10:49:13;7.60;77.20
76263;DHT22;65080;50.908;6.916;2022-12-07T10:51:52;7.60;77.20
76263;DHT22;65080;50.908;6.916;2022-12-07T10:54:30;7.60;77.30
76263;DHT22;65080;50.908;6.916;2022-12-07T10:57:23;7.70;77.40
76263;DHT22;65080;50.908;6.916;2022-12-07T11:00:04;7.70;77.20
76263;DHT22;65080;50.908;6.916;2022-12-07T11:02:54;7.70;77.00
76263;DHT22;65080;50.908;6.916;2022-12-07T11:05:29;7.80;76.80
76263;DHT22;65080;50.908;6.916;2022-12-07T11:08:11;7.80;76.70
76263;DHT22;65080;50.908;6.916;2022-12-07T11:10:46;7.80;76.50
76263;DHT22;65080;50.908;6.916;2022-12-07T11:13:25;7.80;76.30
76263;DHT22;65080;50.908;6.916;2022-12-07T11:16:16;7.80;76.20
76263;DHT22;65080;50.908;6.916;2022-12-07T11:18:56;7.80;76.80
76263;DHT22;65080;50.908;6.916;2022-12-07T11:21:31;7.90;76.20
76263;DHT22;65080;50.908;6.916;2022-12-07T11:24:08;7.90;76.00
76263;DHT22;65080;50.908;6.916;2022-12-07T11:26:54;7.90;75.80
76263;DHT22;65080;50.908;6.916;2022-12-07T11:29:44;8.00;75.70
76263;DHT22;65080;50.908;6.916;2022-12-07T11:32:17;8.00;75.50
76263;DHT22;65080;50.908;6.916;2022-12-07T11:35:00;8.00;76.10
76263;DHT22;65080;50.908;6.916;2022-12-07T11:37:34;8.00;75.10
76263;DHT22;65080;50.908;6.916;2022-12-07T11:40:14;8.00;75.00
76263;DHT22;65080;50.908;6.916;2022-12-07T11:42:49;8.00;74.90
76263;DHT22;65080;50.908;6.916;2022-12-07T11:45:22;8.10;74.80
76263;DHT22;65080;50.908;6.916;2022-12-07T11:47:54;8.10;74.50
76263;DHT22;65080;50.908;6.916;2022-12-07T11:50:33;8.10;74.40
76263;DHT22;65080;50.908;6.916;2022-12-07T11:53:14;8.10;74.30
76263;DHT22;65080;50.908;6.916;2022-12-07T11:55:49;8.10;74.30
76263;DHT22;65080;50.908;6.916;2022-12-07T11:58:28;8.10;74.10
76263;DHT22;65080;50.908;6.916;2022-12-07T12:01:14;8.10;73.80
76263;DHT22;65080;50.908;6.916;2022-12-07T12:03:45;8.10;73.60
76263;DHT22;65080;50.908;6.916;2022-12-07T12:06:21;8.00;73.50
76263;DHT22;65080;50.908;6.916;2022-12-07T12:08:53;8.00;73.40
76263;DHT22;65080;50.908;6.916;2022-12-07T12:12:16;8.00;73.10
76263;DHT22;65080;50.908;6.916;2022-12-07T12:15:32;7.90;72.90
76263;DHT22;65080;50.908;6.916;2022-12-07T12:21:02;7.80;72.80
76263;DHT22;65080;50.908;6.916;2022-12-07T12:23:38;7.80;73.00
76263;DHT22;65080;50.908;6.916;2022-12-07T12:26:13;7.80;72.90
76263;DHT22;65080;50.908;6.916;2022-12-07T12:28:52;7.80;73.00
76263;DHT22;65080;50.908;6.916;2022-12-07T12:31:34;7.90;73.00
76263;DHT22;65080;50.908;6.916;2022-12-07T12:34:29;7.90;72.80
76263;DHT22;65080;50.908;6.916;2022-12-07T12:36:58;7.90;72.70
76263;DHT22;65080;50.908;6.916;2022-12-07T12:39:28;7.90;72.70
76263;DHT22;65080;50.908;6.916;2022-12-07T12:41:58;7.90;72.80
76263;DHT22;65080;50.908;6.916;2022-12-07T12:45:19;7.90;72.70
76263;DHT22;65080;50.908;6.916;2022-12-07T12:47:57;7.90;72.60
76263;DHT22;65080;50.908;6.916;2022-12-07T12:50:29;7.90;72.70
76263;DHT22;65080;50.908;6.916;2022-12-07T12:53:21;7.90;72.90
76263;DHT22;65080;50.908;6.916;2022-12-07T12:56:29;7.90;72.80
76263;DHT22;65080;50.908;6.916;2022-12-07T12:59:24;7.90;72.80
76263;DHT22;65080;50.908;6.916;2022-12-07T13:01:55;7.90;72.80
76263;DHT22;65080;50.908;6.916;2022-12-07T13:07:56;7.90;72.80
76263;DHT22;65080;50.908;6.916;2022-12-07T13:10:37;7.80;72.70
76263;DHT22;65080;50.908;6.916;2022-12-07T13:13:31;7.90;72.90
76263;DHT22;65080;50.908;6.916;2022-12-07T13:16:37;7.90;72.80
76263;DHT22;65080;50.908;6.916;2022-12-07T13:25:12;7.90;73.00
76263;DHT22;65080;50.908;6.916;2022-12-07T13:27:43;7.90;73.00
76263;DHT22;65080;50.908;6.916;2022-12-07T13:30:18;7.90;72.90
76263;DHT22;65080;50.908;6.916;2022-12-07T13:32:52;7.90;73.50
76263;DHT22;65080;50.908;6.916;2022-12-07T13:35:29;8.00;72.80
76263;DHT22;65080;50.908;6.916;2022-12-07T13:37:57;7.90;72.70
76263;DHT22;65080;50.908;6.916;2022-12-07T13:40:26;7.90;72.70
76263;DHT22;65080;50.908;6.916;2022-12-07T13:42:58;7.90;72.70
76263;DHT22;65080;50.908;6.916;2022-12-07T13:45:30;7.90;72.60
76263;DHT22;65080;50.908;6.916;2022-12-07T13:48:21;7.90;72.60
76263;DHT22;65080;50.908;6.916;2022-12-07T13:50:53;7.90;72.30
76263;DHT22;65080;50.908;6.916;2022-12-07T13:53:23;7.90;72.30
76263;DHT22;65080;50.908;6.916;2022-12-07T13:55:52;7.90;72.20
76263;DHT22;65080;50.908;6.916;2022-12-07T13:58:21;7.90;72.10
76263;DHT22;65080;50.908;6.916;2022-12-07T14:00:51;8.00;72.10
76263;DHT22;65080;50.908;6.916;2022-12-07T14:03:31;8.00;72.10
76263;DHT22;65080;50.908;6.916;2022-12-07T14:06:17;8.00;72.00
76263;DHT22;65080;50.908;6.916;2022-12-07T14:08:46;8.00;72.00
76263;DHT22;65080;50.908;6.916;2022-12-07T14:11:17;8.00;71.90
76263;DHT22;65080;50.908;6.916;2022-12-07T14:13:58;8.00;71.90
76263;DHT22;65080;50.908;6.916;2022-12-07T14:16:31;8.00;71.80
76263;DHT22;65080;50.908;6.916;2022-12-07T14:19:02;7.90;71.70
76263;DHT22;65080;50.908;6.916;2022-12-07T14:21:33;7.90;71.80
76263;DHT22;65080;50.908;6.916;2022-12-07T14:24:15;7.90;71.80
76263;DHT22;65080;50.908;6.916;2022-12-07T14:26:45;7.90;72.00
76263;DHT22;65080;50.908;6.916;2022-12-07T14:29:22;7.90;72.20
76263;DHT22;65080;50.908;6.916;2022-12-07T14:31:59;7.90;72.20
76263;DHT22;65080;50.908;6.916;2022-12-07T14:34:36;7.90;72.10
76263;DHT22;65080;50.908;6.916;2022-12-07T14:37:06;7.80;72.10
76263;DHT22;65080;50.908;6.916;2022-12-07T14:39:35;7.80;72.40
76263;DHT22;65080;50.908;6.916;2022-12-07T14:42:03;7.80;72.40
76263;DHT22;65080;50.908;6.916;2022-12-07T14:44:31;7.80;72.50
76263;DHT22;65080;50.908;6.916;2022-12-07T14:47:03;7.80;72.60
76263;DHT22;65080;50.908;6.916;2022-12-07T14:49:51;7.70;72.60
76263;DHT22;65080;50.908;6.916;2022-12-07T14:52:21;7.70;72.90
76263;DHT22;65080;50.908;6.916;2022-12-07T14:55:18;7.60;73.10
76263;DHT22;65080;50.908;6.916;2022-12-07T14:57:48;7.60;73.40
76263;DHT22;65080;50.908;6.916;2022-12-07T15:00:17;7.60;73.50
76263;DHT22;65080;50.908;6.916;2022-12-07T15:02:48;7.60;73.70
76263;DHT22;65080;50.908;6.916;2022-12-07T15:05:18;7.60;74.00
76263;DHT22;65080;50.908;6.916;2022-12-07T15:07:47;7.60;74.10
76263;DHT22;65080;50.908;6.916;2022-12-07T15:10:18;7.50;74.30
76263;DHT22;65080;50.908;6.916;2022-12-07T15:12:50;7.50;74.70
76263;DHT22;65080;50.908;6.916;2022-12-07T15:15:19;7.50;74.90
76263;DHT22;65080;50.908;6.916;2022-12-07T15:17:48;7.50;75.10
76263;DHT22;65080;50.908;6.916;2022-12-07T15:20:16;7.50;75.40
76263;DHT22;65080;50.908;6.916;2022-12-07T15:22:45;7.50;75.60
76263;DHT22;65080;50.908;6.916;2022-12-07T15:25:13;7.50;75.80
76263;DHT22;65080;50.908;6.916;2022-12-07T15:27:42;7.40;75.70
76263;DHT22;65080;50.908;6.916;2022-12-07T15:30:10;7.40;75.90
76263;DHT22;65080;50.908;6.916;2022-12-07T15:32:39;7.40;76.10
76263;DHT22;65080;50.908;6.916;2022-12-07T15:35:08;7.40;76.20
76263;DHT22;65080;50.908;6.916;2022-12-07T15:37:37;7.40;76.30
76263;DHT22;65080;50.908;6.916;2022-12-07T15:40:07;7.40;76.40
76263;DHT22;65080;50.908;6.916;2022-12-07T15:42:35;7.40;76.60
76263;DHT22;65080;50.908;6.916;2022-12-07T15:45:05;7.40;76.70
76263;DHT22;65080;50.908;6.916;2022-12-07T15:47:35;7.50;77.00
76263;DHT22;65080;50.908;6.916;2022-12-07T15:50:25;7.50;77.10
76263;DHT22;65080;50.908;6.916;2022-12-07T15:52:53;7.50;77.10
76263;DHT22;65080;50.908;6.916;2022-12-07T15:55:22;7.50;77.10
76263;DHT22;65080;50.908;6.916;2022-12-07T15:57:50;7.50;76.70
76263;DHT22;65080;50.908;6.916;2022-12-07T16:00:19;7.40;76.60
76263;DHT22;65080;50.908;6.916;2022-12-07T16:02:48;7.40;76.60
76263;DHT22;65080;50.908;6.916;2022-12-07T16:05:16;7.30;76.50
76263;DHT22;65080;50.908;6.916;2022-12-07T16:07:46;7.30;76.40
76263;DHT22;65080;50.908;6.916;2022-12-07T16:10:14;7.30;76.40
76263;DHT22;65080;50.908;6.916;2022-12-07T16:12:43;7.30;76.50
76263;DHT22;65080;50.908;6.916;2022-12-07T16:15:11;7.30;76.40
76263;DHT22;65080;50.908;6.916;2022-12-07T16:17:39;7.30;76.30
76263;DHT22;65080;50.908;6.916;2022-12-07T16:20:08;7.30;76.30
76263;DHT22;65080;50.908;6.916;2022-12-07T16:22:37;7.20;76.10
76263;DHT22;65080;50.908;6.916;2022-12-07T16:25:07;7.20;76.10
76263;DHT22;65080;50.908;6.916;2022-12-07T16:27:36;7.20;76.00
76263;DHT22;65080;50.908;6.916;2022-12-07T16:30:05;7.20;76.00
76263;DHT22;65080;50.908;6.916;2022-12-07T16:32:34;7.20;76.10
76263;DHT22;65080;50.908;6.916;2022-12-07T16:35:02;7.20;75.90
76263;DHT22;65080;50.908;6.916;2022-12-07T16:37:31;7.20;75.90